Time;durP1;ratioP1;P1;durP2;ratioP2;P2;SDS_P1;SDS_P2;PMS_P1;PMS_P2;Temp;Humidity;BMP_temperature;BMP_pressure;BME280_temperature;BME280_humidity;BME280_pressure;Samples;Min_cycle;Max_cycle;Signal;HPM_P1;HPM_P2
2022/06/11 00:00:31;;;;;;;5.82;5.05;;;;;;;11.63;82.39;99218.44;4192611;28;20101;-72
2022/06/11 00:02:32;;;;;;;8.07;5.85;;;;;;;11.56;83.42;99227.41;4187021;28;20036;-71
2022/06/11 00:04:41;;;;;;;5.95;5.35;;;;;;;11.48;84.37;99218.16;4188691;28;20040;-72
2022/06/11 00:06:45;;;;;;;7.18;5.60;;;;;;;11.50;83.48;99224.16;4188602;28;20052;-72
2022/06/11 00:08:46;;;;;;;7.53;5.47;;;;;;;11.54;81.78;99224.19;4187062;28;20039;-71
2022/06/11 00:10:47;;;;;;;7.78;6.55;;;;;;;11.49;83.90;99233.59;4188096;28;20041;-72
2022/06/11 00:12:47;;;;;;;8.40;5.53;;;;;;;11.45;83.80;99231.94;4133379;28;20321;-71
2022/06/11 00:14:49;;;;;;;7.15;5.85;;;;;;;11.43;83.28;99231.50;4181030;28;20084;-72
2022/06/11 00:16:50;;;;;;;7.70;6.05;;;;;;;11.38;84.03;99240.91;4190490;28;20070;-71
2022/06/11 00:18:54;;;;;;;7.57;5.60;;;;;;;11.32;83.27;99231.28;4190593;28;20096;-71
2022/06/11 00:20:54;;;;;;;6.82;5.60;;;;;;;11.33;83.86;99234.84;4190390;28;20098;-71
2022/06/11 00:22:54;;;;;;;9.52;5.60;;;;;;;11.34;83.09;99234.50;4193191;28;20314;-71
2022/06/11 00:24:55;;;;;;;8.07;5.30;;;;;;;11.38;82.57;99235.38;4195026;28;20451;-71
2022/06/11 00:26:57;;;;;;;7.40;5.35;;;;;;;11.40;82.63;99235.00;4190392;28;20070;-71
2022/06/11 00:28:58;;;;;;;6.75;5.22;;;;;;;11.35;83.58;99232.53;4190449;28;20400;-71
2022/06/11 00:30:59;;;;;;;6.28;5.00;;;;;;;11.35;82.75;99236.09;4193408;28;20082;-72
2022/06/11 00:32:59;;;;;;;7.32;6.07;;;;;;;11.37;82.42;99227.44;4194152;28;20080;-71
2022/06/11 00:35:03;;;;;;;7.68;5.40;;;;;;;11.38;82.58;99231.78;4190840;28;20285;-71
2022/06/11 00:37:04;;;;;;;7.47;4.90;;;;;;;11.37;83.45;99232.97;4190216;28;20037;-71
2022/06/11 00:39:09;;;;;;;8.75;5.32;;;;;;;11.36;83.44;99239.69;4190445;28;20042;-71
2022/06/11 00:41:09;;;;;;;6.88;5.00;;;;;;;11.35;83.54;99236.09;4189827;28;20048;-71
2022/06/11 00:43:13;;;;;;;6.05;4.95;;;;;;;11.31;83.91;99229.69;4190176;28;20790;-71
2022/06/11 00:45:35;;;;;;;10.85;5.75;;;;;;;11.26;84.73;99227.22;4191804;28;20285;-71
2022/06/11 00:47:35;;;;;;;6.68;5.25;;;;;;;11.28;84.59;99235.97;4190787;28;20130;-71
2022/06/11 00:49:51;;;;;;;5.70;4.60;;;;;;;11.32;83.90;99242.34;4189589;28;20048;-71
2022/06/11 00:51:59;;;;;;;6.82;4.97;;;;;;;11.34;83.21;99236.47;4188979;28;20098;-71
2022/06/11 00:54:07;;;;;;;6.07;4.60;;;;;;;11.32;84.11;99234.03;4190023;28;20063;-71
2022/06/11 00:56:16;;;;;;;4.80;4.03;;;;;;;11.29;84.82;99226.47;4189613;28;20048;-71
2022/06/11 00:58:33;;;;;;;5.07;4.38;;;;;;;11.30;84.83;99230.03;4189942;28;20032;-71
2022/06/11 01:00:47;;;;;;;5.45;4.38;;;;;;;11.30;85.37;99228.06;4189268;28;20031;-71
2022/06/11 01:02:48;;;;;;;8.48;4.93;;;;;;;11.30;85.95;99230.03;4190135;28;20048;-71
2022/06/11 01:04:53;;;;;;;5.72;5.10;;;;;;;11.29;86.56;99225.69;4190650;28;20361;-71
2022/06/11 01:06:59;;;;;;;8.20;5.03;;;;;;;11.28;86.74;99224.06;4189820;28;20361;-71
2022/06/11 01:09:06;;;;;;;9.13;5.68;;;;;;;11.27;86.83;99231.59;4189073;28;20043;-71
2022/06/11 01:11:31;;;;;;;9.05;5.60;;;;;;;11.27;86.84;99225.25;4192632;28;20283;-71
2022/06/11 01:13:50;;;;;;;6.10;4.50;;;;;;;11.22;87.26;99227.13;4190124;28;20353;-71
2022/06/11 01:15:59;;;;;;;6.78;5.20;;;;;;;11.20;87.17;99220.34;4189940;28;20218;-71
2022/06/11 01:18:23;;;;;;;7.90;5.00;;;;;;;11.14;87.38;99219.84;4189840;28;20130;-71
2022/06/11 01:20:45;;;;;;;6.75;5.07;;;;;;;11.10;87.80;99220.94;4190065;28;20503;-71
2022/06/11 01:23:18;;;;;;;6.72;4.97;;;;;;;11.06;87.86;99212.53;4189750;28;20453;-71
2022/06/11 01:25:52;;;;;;;6.07;5.10;;;;;;;11.01;88.03;99212.84;4189929;28;20076;-71
2022/06/11 01:28:15;;;;;;;9.43;6.15;;;;;;;11.02;86.48;99208.91;4192362;28;20033;-71
2022/06/11 01:30:23;;;;;;;5.20;4.70;;;;;;;11.07;85.77;99208.59;4191457;28;20480;-71
2022/06/11 01:32:35;;;;;;;6.30;5.00;;;;;;;11.10;84.87;99205.13;4188786;28;20036;-71
2022/06/11 01:35:10;;;;;;;6.80;5.17;;;;;;;11.15;85.00;99206.78;4189054;28;20366;-71
2022/06/11 01:37:20;;;;;;;6.93;5.18;;;;;;;11.12;84.45;99205.56;4189079;28;20275;-71
2022/06/11 01:39:34;;;;;;;7.88;5.30;;;;;;;11.08;87.07;99206.63;4189005;28;20093;-71
2022/06/11 01:41:44;;;;;;;5.18;4.68;;;;;;;11.05;86.99;99210.94;4189447;28;20059;-71
2022/06/11 01:43:48;;;;;;;6.03;4.72;;;;;;;11.08;84.61;99210.19;4189088;28;20048;-71
2022/06/11 01:45:49;;;;;;;7.30;5.10;;;;;;;11.15;83.62;99202.03;4190292;28;20375;-71
2022/06/11 01:47:51;;;;;;;6.10;4.70;;;;;;;11.17;83.80;99202.50;4194076;28;20131;-71
2022/06/11 01:49:52;;;;;;;6.43;5.40;;;;;;;11.16;86.22;99203.66;4188013;28;20384;-71
2022/06/11 01:52:20;;;;;;;6.93;4.97;;;;;;;11.14;85.89;99200.44;4189522;28;20469;-71
2022/06/11 01:54:41;;;;;;;5.93;4.35;;;;;;;11.21;84.28;99202.56;4190181;28;20554;-71
2022/06/11 01:56:47;;;;;;;7.25;5.00;;;;;;;11.20;85.39;99192.66;4189879;28;20045;-71
2022/06/11 01:59:12;;;;;;;5.95;5.35;;;;;;;11.20;85.94;99196.22;4188514;28;20040;-71
2022/06/11 02:01:31;;;;;;;6.78;5.25;;;;;;;11.18;86.29;99193.03;4188367;28;20052;-71
2022/06/11 02:04:07;;;;;;;5.00;4.47;;;;;;;11.21;85.39;99199.78;4189450;28;20049;-71
2022/06/11 02:06:16;;;;;;;5.50;4.70;;;;;;;11.27;86.13;99198.34;4187947;28;20056;-71
2022/06/11 02:08:40;;;;;;;7.25;5.07;;;;;;;11.25;86.41;99197.88;4193590;28;20036;-72
2022/06/11 02:11:03;;;;;;;5.60;4.85;;;;;;;11.29;84.83;99187.69;4189449;27;20098;-71
2022/06/11 02:13:05;;;;;;;6.33;5.27;;;;;;;11.29;85.66;99193.22;4189309;28;20502;-71
2022/06/11 02:15:13;;;;;;;8.18;5.65;;;;;;;11.24;87.34;99196.28;4189664;28;20267;-71
2022/06/11 02:17:38;;;;;;;12.02;5.30;;;;;;;11.19;86.89;99194.63;4188947;28;20052;-71
2022/06/11 02:19:49;;;;;;;5.68;4.85;;;;;;;11.22;86.08;99196.66;4189289;28;20682;-71
2022/06/11 02:22:00;;;;;;;6.93;4.63;;;;;;;11.22;86.12;99185.56;4193954;28;20051;-71
2022/06/11 02:24:13;;;;;;;6.03;4.90;;;;;;;11.30;84.49;99192.06;4187561;28;20350;-71
2022/06/11 02:26:23;;;;;;;6.15;4.85;;;;;;;11.30;85.22;99192.06;4188572;28;20052;-71
2022/06/11 02:28:33;;;;;;;8.52;5.43;;;;;;;11.36;83.61;99185.06;4188930;28;20532;-71
2022/06/11 02:30:35;;;;;;;5.38;4.78;;;;;;;11.35;85.81;99183.47;4188884;28;20461;-71
2022/06/11 02:32:35;;;;;;;6.78;5.03;;;;;;;11.40;84.76;99194.22;4188118;28;20056;-71
2022/06/11 02:34:39;;;;;;;5.70;4.95;;;;;;;11.40;84.72;99188.69;4187707;28;20086;-71
2022/06/11 02:36:57;;;;;;;8.45;5.50;;;;;;;11.34;85.64;99190.19;4191879;28;20087;-71
2022/06/11 02:39:00;;;;;;;5.57;5.00;;;;;;;11.32;86.02;99194.47;4187716;28;20049;-71
2022/06/11 02:41:06;;;;;;;5.75;5.03;;;;;;;11.32;85.06;99188.91;4188573;28;20393;-71
2022/06/11 02:43:07;;;;;;;5.90;5.18;;;;;;;11.31;84.55;99192.88;4188066;28;20427;-71
2022/06/11 02:45:10;;;;;;;7.03;5.43;;;;;;;11.28;85.58;99191.63;4190673;28;20039;-71
2022/06/11 02:47:13;;;;;;;7.40;5.40;;;;;;;11.27;85.44;99197.53;4191146;28;20032;-71
2022/06/11 02:49:15;;;;;;;6.38;5.07;;;;;;;11.23;85.83;99189.94;4187457;28;21083;-71
2022/06/11 02:51:17;;;;;;;;;;;;;;;11.25;86.35;99195.13;4193269;28;20047;-71
2022/06/11 02:53:18;;;;;;;6.05;4.80;;;;;;;11.22;85.90;99195.84;4188503;28;20019;-71
2022/06/11 02:55:18;;;;;;;6.45;4.65;;;;;;;11.25;85.48;99197.88;4189140;28;20927;-71
2022/06/11 02:57:23;;;;;;;5.38;4.65;;;;;;;11.27;85.57;99192.00;4190909;28;20072;-71
2022/06/11 02:59:25;;;;;;;5.65;5.05;;;;;;;11.30;86.10;99191.25;4187863;28;20044;-71
2022/06/11 03:01:25;;;;;;;8.73;5.85;;;;;;;11.29;85.91;99198.78;4187952;28;20044;-71
2022/06/11 03:03:27;;;;;;;8.73;5.10;;;;;;;11.32;85.52;99205.53;4188325;28;20056;-71
2022/06/11 03:05:30;;;;;;;6.18;5.10;;;;;;;11.37;86.28;99200.53;4188341;28;20537;-71
2022/06/11 03:07:30;;;;;;;7.22;4.80;;;;;;;11.39;85.55;99214.81;4187870;28;20429;-71
2022/06/11 03:09:33;;;;;;;6.70;4.80;;;;;;;11.44;84.26;99210.94;4187640;28;20070;-71
2022/06/11 03:11:34;;;;;;;7.65;4.68;;;;;;;11.45;84.43;99201.47;4190168;28;20317;-71
2022/06/11 03:13:34;;;;;;;5.22;4.72;;;;;;;11.45;85.72;99204.22;4188352;28;20615;-71
2022/06/11 03:15:35;;;;;;;6.18;4.93;;;;;;;11.42;86.14;99202.19;4187666;28;20132;-71
2022/06/11 03:17:36;;;;;;;8.27;5.20;;;;;;;11.44;85.40;99206.19;4188030;28;20210;-71
2022/06/11 03:19:36;;;;;;;11.70;6.03;;;;;;;11.42;88.09;99211.31;4187567;28;20384;-71
2022/06/11 03:21:38;;;;;;;5.75;5.25;;;;;;;11.41;88.38;99208.88;4194014;28;20592;-71
2022/06/11 03:23:38;;;;;;;7.27;5.63;;;;;;;11.44;86.46;99208.19;4188117;28;20131;-71
2022/06/11 03:25:39;;;;;;;9.38;5.70;;;;;;;11.50;85.86;99215.84;4187898;28;20474;-71
2022/06/11 03:27:40;;;;;;;6.28;5.38;;;;;;;11.54;86.13;99211.16;4187644;28;20045;-71
2022/06/11 03:29:40;;;;;;;9.73;5.60;;;;;;;11.59;85.79;99212.84;4189265;28;20230;-71
2022/06/11 03:31:42;;;;;;;6.72;5.57;;;;;;;11.66;85.07;99223.22;4187410;28;20044;-71
2022/06/11 03:33:43;;;;;;;6.82;5.80;;;;;;;11.67;84.95;99214.56;4187761;28;20092;-71
2022/06/11 03:35:44;;;;;;;7.45;5.20;;;;;;;11.73;84.50;99217.81;4186730;28;20065;-71
2022/06/11 03:37:44;;;;;;;8.80;5.90;;;;;;;11.74;84.88;99211.91;4187377;28;20453;-71
2022/06/11 03:39:45;;;;;;;9.65;5.43;;;;;;;11.78;84.73;99221.09;4187802;28;20040;-71
2022/06/11 03:41:48;;;;;;;7.13;5.10;;;;;;;11.80;85.92;99229.06;4187341;28;20135;-71
2022/06/11 03:43:50;;;;;;;6.38;4.93;;;;;;;11.80;84.79;99218.78;4187841;28;20170;-72
2022/06/11 03:45:51;;;;;;;5.65;5.05;;;;;;;11.84;84.90;99218.88;4187581;28;20066;-71
2022/06/11 03:47:51;;;;;;;11.48;6.18;;;;;;;11.84;85.77;99215.28;4187325;28;20101;-71
2022/06/11 03:49:52;;;;;;;6.75;5.85;;;;;;;11.79;86.85;99231.03;4186793;28;20468;-71
2022/06/11 03:51:52;;;;;;;8.82;5.47;;;;;;;11.85;84.38;99222.44;4188494;28;20174;-71
2022/06/11 03:53:52;;;;;;;6.47;5.28;;;;;;;11.86;84.74;99233.16;4188612;28;20045;-71
2022/06/11 03:55:54;;;;;;;9.70;5.72;;;;;;;11.88;84.91;99224.47;4187417;28;20729;-71
2022/06/11 03:57:55;;;;;;;6.03;4.78;;;;;;;11.87;83.57;99220.88;4190603;28;20072;-71
2022/06/11 03:59:57;;;;;;;6.50;5.50;;;;;;;11.92;83.71;99228.91;4187627;28;20094;-71
2022/06/11 04:01:57;;;;;;;6.03;4.90;;;;;;;11.97;83.72;99233.34;4187297;28;20500;-72
2022/06/11 04:04:05;;;;;;;7.82;5.05;;;;;;;12.02;83.12;99238.59;4187236;28;20040;-71
2022/06/11 04:06:06;;;;;;;7.32;5.20;;;;;;;12.04;83.79;99233.47;4188126;28;20075;-71
2022/06/11 04:08:07;;;;;;;6.63;4.78;;;;;;;12.07;82.84;99235.50;4187755;28;20032;-71
2022/06/11 04:10:09;;;;;;;7.95;5.47;;;;;;;12.09;83.75;99228.44;4185953;28;20074;-71
2022/06/11 04:12:15;;;;;;;9.45;5.85;;;;;;;12.13;83.67;99236.81;4188328;28;20028;-71
2022/06/11 04:14:16;;;;;;;8.10;5.57;;;;;;;12.14;82.20;99229.28;4192412;28;20560;-71
2022/06/11 04:16:28;;;;;;;6.68;5.35;;;;;;;12.17;82.92;99234.91;4188730;28;20068;-71
2022/06/11 04:18:39;;;;;;;8.05;5.60;;;;;;;12.22;82.79;99236.56;4186531;28;20041;-71
2022/06/11 04:20:39;;;;;;;9.65;5.70;;;;;;;12.23;82.08;99235.38;4188855;28;20444;-71
2022/06/11 04:22:40;;;;;;;7.78;5.20;;;;;;;12.26;81.77;99235.44;4193610;28;20040;-71
2022/06/11 04:24:42;;;;;;;8.13;5.30;;;;;;;12.33;81.55;99240.31;4189049;28;20048;-71
2022/06/11 04:26:45;;;;;;;7.63;5.70;;;;;;;12.34;82.72;99244.69;4187563;28;20132;-71
2022/06/11 04:28:46;;;;;;;7.95;5.75;;;;;;;12.35;81.83;99238.78;4191864;28;20392;-72
2022/06/11 04:30:46;;;;;;;10.48;6.07;;;;;;;12.37;81.57;99239.19;4187716;28;20063;-72
2022/06/11 04:32:46;;;;;;;14.30;5.80;;;;;;;12.38;81.66;99243.56;4190363;28;20051;-71
2022/06/11 04:34:48;;;;;;;7.07;5.75;;;;;;;12.35;82.28;99238.78;4189301;28;20048;-71
2022/06/11 04:36:49;;;;;;;9.15;5.60;;;;;;;12.38;82.74;99240.78;4191983;28;20379;-71
2022/06/11 04:38:50;;;;;;;7.47;5.82;;;;;;;12.40;83.58;99245.97;4191048;28;20476;-71
2022/06/11 04:40:51;;;;;;;7.22;5.32;;;;;;;12.38;84.12;99243.56;4188223;28;20055;-71
2022/06/11 04:42:51;;;;;;;6.55;5.05;;;;;;;12.42;83.00;99240.88;4190856;28;20044;-71
2022/06/11 04:44:52;;;;;;;7.90;5.43;;;;;;;12.42;82.66;99232.53;4188215;28;20388;-71
2022/06/11 04:46:53;;;;;;;7.50;5.53;;;;;;;12.51;83.99;99248.94;4188603;28;20519;-71
2022/06/11 04:48:53;;;;;;;7.88;5.60;;;;;;;12.52;84.61;99236.66;4189664;28;20059;-71
2022/06/11 04:50:55;;;;;;;6.35;5.65;;;;;;;12.56;85.40;99243.84;4188081;28;20512;-71
2022/06/11 04:52:55;;;;;;;10.43;5.75;;;;;;;12.56;85.07;99246.63;4187904;28;20097;-71
2022/06/11 04:54:55;;;;;;;7.65;5.47;;;;;;;12.59;85.00;99236.78;4190293;28;20041;-71
2022/06/11 04:56:56;;;;;;;11.30;5.47;;;;;;;12.61;83.65;99234.41;4188353;28;20033;-72
2022/06/11 04:58:58;;;;;;;8.23;5.63;;;;;;;12.66;84.99;99239.66;4191306;28;20063;-71
2022/06/11 05:00:58;;;;;;;7.63;5.30;;;;;;;12.73;84.60;99241.72;4192848;28;20369;-72
2022/06/11 05:02:59;;;;;;;8.60;5.40;;;;;;;12.78;82.75;99241.41;4190956;28;20028;-71
2022/06/11 05:05:01;;;;;;;9.82;5.88;;;;;;;12.82;84.61;99251.38;4191116;28;20056;-71
2022/06/11 05:07:02;;;;;;;10.98;6.25;;;;;;;12.87;85.35;99239.16;4190876;28;20097;-71
2022/06/11 05:09:03;;;;;;;13.18;5.90;;;;;;;12.91;84.70;99240.81;4191845;28;20071;-71
2022/06/11 05:11:05;;;;;;;7.15;5.95;;;;;;;12.96;85.23;99241.66;4193660;28;20083;-71
2022/06/11 05:13:06;;;;;;;11.55;5.70;;;;;;;12.98;85.38;99248.44;4194083;28;20051;-71
2022/06/11 05:15:08;;;;;;;12.02;5.78;;;;;;;13.00;85.79;99248.88;4190927;28;20032;-71
2022/06/11 05:17:08;;;;;;;10.90;6.05;;;;;;;13.01;87.25;99241.34;4192770;28;20041;-71
2022/06/11 05:19:12;;;;;;;9.88;5.20;;;;;;;13.07;83.86;99259.28;4190805;28;20070;-71
2022/06/11 05:21:12;;;;;;;7.97;5.28;;;;;;;13.11;85.73;99249.81;4191314;28;20072;-72
2022/06/11 05:23:14;;;;;;;7.30;5.95;;;;;;;13.18;85.47;99255.47;4193256;28;20435;-71
2022/06/11 05:25:16;;;;;;;9.20;6.10;;;;;;;13.25;85.64;99254.81;4190807;28;20463;-71
2022/06/11 05:27:21;;;;;;;11.57;5.57;;;;;;;13.26;86.25;99247.28;4191355;28;20452;-71
2022/06/11 05:29:33;;;;;;;11.75;6.45;;;;;;;13.33;84.26;99256.50;4193449;28;20040;-71
2022/06/11 05:31:33;;;;;;;8.45;5.97;;;;;;;13.37;86.14;99260.09;4193055;28;20115;-71
2022/06/11 05:33:34;;;;;;;8.80;5.53;;;;;;;13.43;84.71;99258.59;4191968;28;20547;-71
2022/06/11 05:35:35;;;;;;;11.07;5.57;;;;;;;13.48;84.94;99255.47;4194681;28;20133;-71
2022/06/11 05:37:36;;;;;;;11.90;5.78;;;;;;;13.57;86.76;99255.22;4191004;28;20044;-71
2022/06/11 05:39:36;;;;;;;9.82;6.65;;;;;;;13.64;86.89;99249.72;4190284;28;20037;-72
2022/06/11 05:41:37;;;;;;;15.32;7.07;;;;;;;13.69;86.25;99260.50;4192339;28;20032;-71
2022/06/11 05:43:39;;;;;;;10.27;6.20;;;;;;;13.73;85.79;99258.53;4191011;28;20048;-71
2022/06/11 05:45:49;;;;;;;10.18;6.15;;;;;;;13.79;84.68;99253.44;4191282;28;20097;-71
2022/06/11 05:47:52;;;;;;;9.02;6.57;;;;;;;13.88;85.96;99253.16;4192476;28;20525;-71
2022/06/11 05:49:56;;;;;;;12.43;6.18;;;;;;;13.93;85.28;99255.59;4189377;28;20384;-72
2022/06/11 05:51:59;;;;;;;12.45;6.15;;;;;;;13.99;84.22;99256.84;4193466;28;20044;-72
2022/06/11 05:54:06;;;;;;;18.55;5.55;;;;;;;14.08;82.76;99253.75;4191167;28;20071;-72
2022/06/11 05:56:07;;;;;;;11.60;5.93;;;;;;;14.17;83.98;99254.25;4190848;28;20093;-72
2022/06/11 05:58:10;;;;;;;10.27;7.18;;;;;;;14.22;84.38;99239.97;4194011;28;20708;-71
2022/06/11 06:00:15;;;;;;;11.95;5.88;;;;;;;14.27;82.17;99247.97;4191974;28;20028;-71
2022/06/11 06:02:20;;;;;;;15.63;6.28;;;;;;;14.39;81.42;99244.88;4189661;28;20031;-72
2022/06/11 06:04:21;;;;;;;11.73;6.20;;;;;;;14.47;80.98;99254.91;4190155;28;20077;-71
2022/06/11 06:06:21;;;;;;;14.98;7.68;;;;;;;14.52;82.40;99246.22;4191980;28;20460;-71
2022/06/11 06:08:22;;;;;;;9.57;5.57;;;;;;;14.56;82.87;99255.41;4192722;28;20048;-72
2022/06/11 06:10:23;;;;;;;8.35;5.75;;;;;;;14.60;81.39;99256.22;4189557;28;20041;-71
2022/06/11 06:12:24;;;;;;;9.53;6.07;;;;;;;14.67;82.20;99254.69;4192537;28;20160;-72
2022/06/11 06:14:24;;;;;;;6.38;5.57;;;;;;;14.69;81.80;99241.97;4188925;28;20374;-72
2022/06/11 06:16:29;;;;;;;7.13;5.70;;;;;;;14.75;82.43;99250.78;4191160;28;20044;-72
2022/06/11 06:18:29;;;;;;;7.70;6.03;;;;;;;14.81;83.04;99252.81;4191015;28;20040;-72
2022/06/11 06:20:30;;;;;;;7.82;5.40;;;;;;;14.85;81.28;99248.06;4191083;28;20127;-72
2022/06/11 06:22:30;;;;;;;7.70;5.70;;;;;;;14.92;80.65;99260.44;4190708;28;20127;-72
2022/06/11 06:24:33;;;;;;;6.80;5.30;;;;;;;14.95;77.02;99249.31;4192966;28;20102;-72
2022/06/11 06:26:33;;;;;;;9.38;6.00;;;;;;;15.01;77.87;99255.31;4189311;28;20436;-72
2022/06/11 06:28:34;;;;;;;7.40;5.35;;;;;;;15.08;77.78;99247.81;4190293;28;20239;-72
2022/06/11 06:30:35;;;;;;;7.72;5.70;;;;;;;15.14;75.61;99251.00;4192519;28;20051;-72
2022/06/11 06:32:35;;;;;;;10.05;6.35;;;;;;;15.20;77.63;99246.66;4191236;28;20476;-72
2022/06/11 06:34:36;;;;;;;5.82;5.20;;;;;;;15.26;76.16;99247.91;4191669;28;20044;-72
2022/06/11 06:36:36;;;;;;;13.07;6.20;;;;;;;15.26;79.60;99256.25;4189710;28;20055;-72
2022/06/11 06:38:38;;;;;;;10.82;6.80;;;;;;;15.29;79.28;99255.47;4192651;28;20040;-72
2022/06/11 06:40:38;;;;;;;7.75;5.32;;;;;;;15.29;76.53;99255.47;4189123;28;20044;-72
2022/06/11 06:42:38;;;;;;;5.75;5.15;;;;;;;15.34;75.30;99257.88;4190058;28;20036;-72
2022/06/11 06:44:39;;;;;;;6.75;4.75;;;;;;;15.38;75.45;99255.09;4189666;28;20475;-72
2022/06/11 06:46:39;;;;;;;7.45;5.35;;;;;;;15.43;78.58;99265.91;4191405;28;20239;-72
2022/06/11 06:48:39;;;;;;;14.00;5.57;;;;;;;15.46;78.48;99267.88;4189781;28;20036;-72
2022/06/11 06:50:40;;;;;;;7.95;5.97;;;;;;;15.53;78.71;99264.34;4139866;28;20195;-72
2022/06/11 06:52:40;;;;;;;8.35;4.75;;;;;;;15.57;73.80;99257.59;4201639;28;20229;-72
2022/06/11 06:54:41;;;;;;;6.03;4.82;;;;;;;15.61;75.59;99258.44;4190631;28;20036;-72
2022/06/11 06:56:41;;;;;;;9.27;5.82;;;;;;;15.72;77.60;99264.84;4188865;28;20044;-72
2022/06/11 06:58:42;;;;;;;9.57;6.20;;;;;;;15.79;77.75;99261.28;4190620;28;20047;-72
2022/06/11 07:00:43;;;;;;;8.27;5.57;;;;;;;15.85;77.91;99265.28;4188774;28;20048;-72
2022/06/11 07:02:45;;;;;;;6.05;5.45;;;;;;;15.93;76.83;99266.91;4191005;28;20045;-72
2022/06/11 07:04:45;;;;;;;7.03;6.32;;;;;;;15.97;74.57;99258.53;4193350;28;20126;-72
2022/06/11 07:06:46;;;;;;;7.25;5.90;;;;;;;16.02;74.57;99264.53;4192195;28;20474;-72
2022/06/11 07:08:48;;;;;;;10.05;6.30;;;;;;;16.00;70.72;99258.53;4188105;28;20048;-72
2022/06/11 07:10:51;;;;;;;5.80;5.07;;;;;;;16.09;74.93;99260.97;4186817;28;20070;-72
2022/06/11 07:12:53;;;;;;;8.48;5.40;;;;;;;16.15;76.03;99264.97;4187492;28;20499;-72
2022/06/11 07:14:54;;;;;;;7.03;5.18;;;;;;;16.23;75.23;99265.78;4188495;28;20050;-72
2022/06/11 07:16:57;;;;;;;8.77;5.05;;;;;;;16.29;74.37;99264.97;4187002;28;20047;-72
2022/06/11 07:19:03;;;;;;;7.38;4.55;;;;;;;16.36;73.92;99264.16;4185925;28;20478;-72
2022/06/11 07:21:08;;;;;;;5.82;4.47;;;;;;;16.44;73.79;99271.34;4187668;28;20450;-72
2022/06/11 07:23:46;;;;;;;7.18;4.50;;;;;;;16.54;73.82;99272.56;4187758;28;20267;-72
2022/06/11 07:25:50;;;;;;;5.82;4.57;;;;;;;16.62;74.51;99260.19;4187506;28;20044;-72
2022/06/11 07:27:59;;;;;;;10.45;5.18;;;;;;;16.68;73.82;99253.00;4188964;28;20032;-72
2022/06/11 07:30:04;;;;;;;7.82;4.10;;;;;;;16.80;72.71;99257.44;4186298;28;20036;-72
2022/06/11 07:32:13;;;;;;;6.03;4.60;;;;;;;16.85;72.00;99266.19;4186832;28;20137;-72
2022/06/11 07:34:14;;;;;;;8.07;4.72;;;;;;;16.98;72.16;99265.78;4191368;28;20040;-72
2022/06/11 07:36:15;;;;;;;5.85;4.28;;;;;;;17.04;72.04;99258.56;4188679;28;20087;-72
2022/06/11 07:38:17;;;;;;;9.88;4.45;;;;;;;17.13;71.41;99258.97;4188433;28;20043;-72
2022/06/11 07:40:19;;;;;;;7.47;4.35;;;;;;;17.21;70.76;99263.34;4188171;28;20855;-72
2022/06/11 07:42:19;;;;;;;5.28;4.13;;;;;;;17.29;71.68;99259.28;4188582;28;20116;-72
2022/06/11 07:44:20;;;;;;;6.72;4.50;;;;;;;17.38;70.69;99264.50;4189274;28;20052;-72
2022/06/11 07:46:20;;;;;;;7.47;4.78;;;;;;;17.47;70.63;99267.66;4187888;28;20090;-72
2022/06/11 07:48:21;;;;;;;7.05;4.50;;;;;;;17.54;71.33;99264.00;4186228;28;20040;-72
2022/06/11 07:50:28;;;;;;;9.38;5.15;;;;;;;17.62;70.66;99257.97;4186413;28;20068;-72
2022/06/11 07:52:28;;;;;;;8.65;5.47;;;;;;;17.68;69.50;99263.94;4187322;28;20032;-72
2022/06/11 07:54:29;;;;;;;7.68;5.88;;;;;;;17.75;69.06;99265.97;4187073;28;20345;-72
2022/06/11 07:56:30;;;;;;;5.95;5.43;;;;;;;17.80;70.04;99263.53;4188608;28;20502;-72
2022/06/11 07:58:31;;;;;;;7.60;5.20;;;;;;;17.89;69.35;99265.88;4186451;28;20113;-72
2022/06/11 08:00:36;;;;;;;6.10;5.00;;;;;;;17.94;68.89;99263.44;4190637;28;20096;-72
2022/06/11 08:02:36;;;;;;;7.28;5.38;;;;;;;18.04;70.28;99272.19;4190237;28;20333;-72
2022/06/11 08:04:36;;;;;;;6.65;5.07;;;;;;;18.13;69.15;99264.16;4188262;28;20055;-72
2022/06/11 08:06:37;;;;;;;6.35;4.70;;;;;;;18.21;68.82;99260.91;4188922;28;20075;-72
2022/06/11 08:08:37;;;;;;;8.68;4.55;;;;;;;18.32;68.95;99266.41;4189439;28;20115;-72
2022/06/11 08:10:40;;;;;;;7.25;4.93;;;;;;;18.41;68.44;99261.16;4191559;28;20370;-72
2022/06/11 08:12:40;;;;;;;7.22;4.47;;;;;;;18.51;68.75;99268.66;4186718;28;20041;-72
2022/06/11 08:14:41;;;;;;;7.53;5.18;;;;;;;18.59;68.60;99263.78;4186434;28;20373;-72
2022/06/11 08:16:41;;;;;;;8.90;5.00;;;;;;;18.69;66.33;99268.53;4187076;28;20450;-72
2022/06/11 08:18:42;;;;;;;8.20;4.80;;;;;;;18.77;66.08;99263.66;4185662;28;20032;-72
2022/06/11 08:20:43;;;;;;;9.38;5.68;;;;;;;18.88;67.07;99261.59;4186387;28;20500;-72
2022/06/11 08:22:43;;;;;;;9.15;4.82;;;;;;;18.99;67.02;99265.06;4186718;28;20051;-72
2022/06/11 08:24:43;;;;;;;10.13;5.10;;;;;;;19.11;65.80;99265.75;4187143;28;20400;-72
2022/06/11 08:26:44;;;;;;;8.77;5.15;;;;;;;19.18;66.55;99258.06;4189135;28;20593;-72
2022/06/11 08:28:45;;;;;;;7.38;4.70;;;;;;;19.29;65.20;99263.56;4184709;28;20569;-72
2022/06/11 08:30:46;;;;;;;7.35;4.22;;;;;;;19.40;64.48;99258.63;4189461;28;20127;-72
2022/06/11 08:32:46;;;;;;;18.85;7.13;;;;;;;19.51;64.46;99262.09;4190170;28;20040;-72
2022/06/11 08:34:47;;;;;;;18.65;9.45;;;;;;;19.66;62.15;99259.13;4196320;28;20039;-72
2022/06/11 08:36:47;;;;;;;13.02;6.65;;;;;;;19.79;61.45;99260.19;4190072;28;20415;-72
2022/06/11 08:38:48;;;;;;;8.45;4.18;;;;;;;19.93;59.76;99262.78;4191232;28;20115;-72
2022/06/11 08:40:53;;;;;;;6.53;3.80;;;;;;;20.09;60.98;99264.97;4191961;28;20098;-73
2022/06/11 08:43:13;;;;;;;7.93;3.63;;;;;;;20.27;58.15;99254.25;4191177;28;20040;-72
2022/06/11 08:45:17;;;;;;;3.42;3.10;;;;;;;20.38;55.26;99263.34;4192104;28;20040;-72
2022/06/11 08:47:21;;;;;;;4.13;2.85;;;;;;;20.50;54.85;99261.16;4190463;28;20485;-72
2022/06/11 08:49:32;;;;;;;6.22;3.00;;;;;;;20.64;53.97;99266.56;4190719;28;20048;-73
2022/06/11 08:51:51;;;;;;;7.43;3.20;;;;;;;20.75;55.52;99262.34;4193422;28;20866;-72
2022/06/11 08:53:55;;;;;;;4.63;3.15;;;;;;;20.84;55.33;99258.97;4189909;28;20106;-72
2022/06/11 08:55:56;;;;;;;4.70;3.10;;;;;;;20.97;56.44;99259.16;4190857;28;20045;-73
2022/06/11 08:58:01;;;;;;;4.32;3.10;;;;;;;21.04;55.90;99248.56;4189296;28;20322;-73
2022/06/11 09:00:44;;;;;;;4.80;2.90;;;;;;;21.11;55.74;99261.72;4192278;28;20048;-73
2022/06/11 09:02:45;;;;;;;4.57;2.50;;;;;;;21.20;53.34;99258.34;4174734;28;20037;-72
2022/06/11 09:05:11;;;;;;;5.90;2.83;;;;;;;21.33;54.20;99253.69;4183106;28;20388;-73
2022/06/11 09:07:11;;;;;;;2.95;2.47;;;;;;;21.46;52.30;99263.06;4191658;28;20678;-73
2022/06/11 09:09:44;;;;;;;4.95;2.63;;;;;;;21.54;50.80;99247.63;4189832;28;20082;-73
2022/06/11 09:12:06;;;;;;;5.53;2.88;;;;;;;21.65;51.90;99255.06;4189847;28;20089;-73
2022/06/11 09:14:26;;;;;;;6.00;2.80;;;;;;;21.69;50.55;99250.94;4190593;28;20110;-73
2022/06/11 09:16:59;;;;;;;4.28;2.38;;;;;;;21.79;49.45;99249.91;4190144;28;20036;-73
2022/06/11 09:19:11;;;;;;;2.92;2.33;;;;;;;21.87;50.13;99257.00;4190187;28;20045;-73
2022/06/11 09:21:25;;;;;;;4.57;2.47;;;;;;;21.90;50.71;99257.34;4189649;28;20300;-73
2022/06/11 09:23:41;;;;;;;5.32;2.17;;;;;;;21.95;49.41;99254.03;4188579;28;20511;-73
2022/06/11 09:25:53;;;;;;;6.18;3.60;;;;;;;22.02;49.87;99254.66;4191048;28;20083;-73
2022/06/11 09:28:23;;;;;;;3.22;2.30;;;;;;;22.12;49.43;99256.47;4190072;28;20049;-73
2022/06/11 09:30:39;;;;;;;7.00;2.60;;;;;;;22.20;48.65;99259.13;4190015;28;20036;-73
2022/06/11 09:33:33;;;;;;;3.70;2.10;;;;;;;22.32;48.41;99253.56;4192264;28;20040;-73
2022/06/11 09:35:50;;;;;;;3.45;2.38;;;;;;;22.35;47.68;99244.25;4173079;28;20494;-73
2022/06/11 09:38:30;;;;;;;4.32;2.50;;;;;;;22.43;47.36;99247.69;4188315;28;20048;-73
2022/06/11 09:40:54;;;;;;;3.38;2.40;;;;;;;22.43;47.51;99247.69;4190335;28;21042;-73
2022/06/11 09:43:19;;;;;;;5.45;2.30;;;;;;;22.47;48.79;99241.97;4188809;28;20033;-73
2022/06/11 09:45:23;;;;;;;3.10;2.30;;;;;;;22.52;47.07;99244.25;4190796;28;20692;-73
2022/06/11 09:47:32;;;;;;;8.60;2.53;;;;;;;22.50;47.20;99249.53;4189531;28;20041;-73
2022/06/11 09:50:13;;;;;;;2.58;2.25;;;;;;;22.54;47.55;99251.03;4187187;28;20362;-73